createdAt,value
2022-08-16T00:00:45.405Z,60.25
2022-08-16T00:03:13.731Z,60.27
2022-08-16T00:05:48.452Z,60.66
2022-08-16T00:08:30.646Z,60.85
2022-08-16T00:11:06.519Z,61.63
2022-08-16T00:13:41.833Z,61.70
2022-08-16T00:17:06.637Z,62.18
2022-08-16T00:18:58.242Z,62.09
2022-08-16T00:21:25.529Z,62.55
2022-08-16T00:23:56.482Z,62.63
2022-08-16T00:26:35.104Z,62.55
2022-08-16T00:29:16.065Z,62.24
2022-08-16T00:32:00.090Z,61.93
2022-08-16T00:34:44.698Z,61.88
2022-08-16T00:37:24.549Z,61.77
2022-08-16T00:39:58.327Z,61.56
2022-08-16T00:42:32.005Z,61.61
2022-08-16T00:45:58.313Z,61.76
2022-08-16T00:48:30.445Z,61.42
2022-08-16T00:51:03.092Z,61.94
2022-08-16T00:53:32.512Z,62.06
2022-08-16T00:56:05.714Z,62.00
2022-08-16T00:58:35.514Z,62.34
2022-08-16T01:01:08.036Z,60.89
2022-08-16T01:03:37.371Z,62.00
2022-08-16T01:06:40.267Z,63.25
2022-08-16T01:09:06.034Z,63.70
2022-08-16T01:11:37.178Z,63.56
2022-08-16T01:14:30.055Z,63.61
2022-08-16T01:16:59.708Z,63.13
2022-08-16T01:19:41.303Z,63.09
2022-08-16T01:22:52.405Z,63.39
2022-08-16T01:25:21.683Z,63.31
2022-08-16T01:27:53.585Z,64.02
2022-08-16T01:30:34.647Z,63.75
2022-08-16T01:33:15.298Z,63.83
2022-08-16T01:35:56.765Z,64.10
2022-08-16T01:38:32.355Z,63.93
2022-08-16T01:41:08.184Z,64.27
2022-08-16T01:43:39.005Z,64.80
2022-08-16T01:46:29.847Z,65.18
2022-08-16T01:49:14.109Z,65.38
2022-08-16T01:51:43.905Z,65.83
2022-08-16T01:54:13.123Z,66.42
2022-08-16T01:56:49.618Z,66.99
2022-08-16T01:59:18.469Z,67.62
2022-08-16T02:01:49.794Z,67.51
2022-08-16T02:04:48.148Z,67.73
2022-08-16T02:07:11.375Z,67.98
2022-08-16T02:09:39.992Z,67.85
2022-08-16T02:12:49.353Z,68.19
2022-08-16T02:14:56.740Z,67.50
2022-08-16T02:17:26.585Z,66.98
2022-08-16T02:19:58.789Z,67.16
2022-08-16T02:22:34.072Z,68.61
2022-08-16T02:25:11.086Z,69.17
2022-08-16T02:27:42.976Z,69.74
2022-08-16T02:30:37.386Z,69.76
2022-08-16T02:33:03.487Z,70.28
2022-08-16T02:35:30.923Z,70.50
2022-08-16T02:38:08.597Z,70.73
2022-08-16T02:40:37.856Z,71.16
2022-08-16T02:43:04.749Z,71.29
2022-08-16T02:45:32.317Z,71.31
2022-08-16T02:48:01.449Z,70.28
2022-08-16T02:50:54.412Z,70.81
2022-08-16T02:53:35.018Z,70.23
2022-08-16T02:56:02.427Z,70.08
2022-08-16T02:58:32.489Z,69.88
2022-08-16T03:01:00.096Z,70.43
2022-08-16T03:04:29.232Z,70.16
2022-08-16T03:06:36.484Z,70.53
2022-08-16T03:09:15.010Z,70.63
2022-08-16T03:11:47.620Z,70.52
2022-08-16T03:14:15.056Z,71.65
2022-08-16T03:16:59.764Z,70.79
2022-08-16T03:19:47.075Z,70.23
2022-08-16T03:22:28.929Z,69.37
2022-08-16T03:25:07.348Z,69.45
2022-08-16T03:27:35.830Z,68.77
2022-08-16T03:30:17.286Z,68.78
2022-08-16T03:32:51.728Z,68.65
2022-08-16T03:35:23.673Z,69.40
2022-08-16T03:38:03.792Z,70.24
2022-08-16T03:40:40.297Z,70.12
2022-08-16T03:43:20.562Z,71.18
2022-08-16T03:45:52.539Z,70.20
2022-08-16T03:48:36.271Z,70.31
2022-08-16T03:51:12.072Z,70.13
2022-08-16T03:53:45.725Z,70.92
2022-08-16T03:56:30.337Z,70.82
2022-08-16T03:58:58.689Z,71.21
2022-08-16T04:01:29.944Z,70.99
2022-08-16T04:03:57.476Z,71.29
2022-08-16T04:06:24.129Z,71.40
2022-08-16T04:08:51.493Z,71.51
2022-08-16T04:11:18.403Z,71.22
2022-08-16T04:14:01.748Z,72.06
2022-08-16T04:16:38.006Z,72.17
2022-08-16T04:19:31.801Z,71.25
2022-08-16T04:22:00.766Z,70.95
2022-08-16T04:24:30.788Z,69.39
2022-08-16T04:26:58.165Z,69.53
2022-08-16T04:29:27.765Z,69.26
2022-08-16T04:32:10.647Z,70.25
2022-08-16T04:34:40.844Z,69.87
2022-08-16T04:37:09.059Z,68.75
2022-08-16T04:39:47.195Z,68.36
2022-08-16T04:42:25.853Z,68.61
2022-08-16T04:44:56.100Z,68.46
2022-08-16T04:47:33.165Z,68.76
2022-08-16T04:50:10.780Z,68.88
2022-08-16T04:52:38.340Z,68.16
2022-08-16T04:55:11.809Z,67.98
2022-08-16T04:57:39.422Z,67.82
2022-08-16T05:00:32.201Z,68.11
2022-08-16T05:03:09.234Z,67.23
2022-08-16T05:06:02.175Z,67.04
2022-08-16T05:08:32.903Z,67.26
2022-08-16T05:11:17.026Z,67.10
2022-08-16T05:13:47.689Z,66.72
2022-08-16T05:16:27.226Z,65.15
2022-08-16T05:19:16.498Z,65.38
2022-08-16T05:22:03.878Z,65.37
2022-08-16T05:24:34.086Z,65.38
2022-08-16T05:27:11.299Z,65.47
2022-08-16T05:29:57.601Z,65.77
2022-08-16T05:32:34.215Z,65.43
2022-08-16T05:35:11.008Z,64.87
2022-08-16T05:37:43.699Z,64.57
2022-08-16T05:40:14.319Z,64.08
2022-08-16T05:42:47.598Z,63.52
2022-08-16T05:45:22.030Z,62.80
2022-08-16T05:47:59.810Z,63.54
2022-08-16T05:50:28.222Z,63.49
2022-08-16T05:53:01.164Z,63.63
2022-08-16T05:55:28.712Z,63.41
2022-08-16T05:57:57.429Z,63.69
2022-08-16T06:00:25.087Z,62.51
2022-08-16T06:02:54.867Z,62.67
2022-08-16T06:05:41.647Z,62.57
2022-08-16T06:08:09.320Z,62.47
2022-08-16T06:11:02.622Z,62.29
2022-08-16T06:13:37.831Z,63.96
2022-08-16T06:16:18.096Z,63.86
2022-08-16T06:18:47.184Z,63.87
2022-08-16T06:21:23.740Z,63.59
2022-08-16T06:23:57.025Z,63.72
2022-08-16T06:26:36.563Z,63.08
2022-08-16T06:29:05.374Z,62.71
2022-08-16T06:31:38.477Z,62.56
2022-08-16T06:34:31.861Z,61.67
2022-08-16T06:37:03.603Z,61.59
2022-08-16T06:39:35.738Z,61.02
2022-08-16T06:42:22.662Z,60.69
2022-08-16T06:45:01.691Z,60.41
2022-08-16T06:47:53.051Z,60.28
2022-08-16T06:50:28.594Z,61.81
2022-08-16T06:53:01.042Z,62.03
2022-08-16T06:55:38.392Z,62.61
2022-08-16T06:58:22.454Z,62.30
2022-08-16T07:01:02.257Z,61.83
2022-08-16T07:03:32.446Z,62.53
2022-08-16T07:06:01.555Z,62.13
2022-08-16T07:08:34.821Z,62.64
2022-08-16T07:11:01.745Z,62.32
2022-08-16T07:14:03.967Z,62.49
2022-08-16T07:16:20.671Z,62.71
2022-08-16T07:19:01.454Z,62.53
2022-08-16T07:21:45.756Z,62.42
2022-08-16T07:24:30.216Z,62.69
2022-08-16T07:27:01.797Z,62.66
2022-08-16T07:29:31.556Z,63.22
2022-08-16T07:32:00.948Z,62.78
2022-08-16T07:34:35.393Z,62.11
2022-08-16T07:37:09.733Z,61.09
2022-08-16T07:39:56.565Z,60.41
2022-08-16T07:42:28.691Z,59.47
2022-08-16T07:45:03.290Z,59.48
2022-08-16T07:47:34.907Z,59.47
2022-08-16T07:50:05.465Z,58.88
2022-08-16T07:52:34.864Z,58.47
2022-08-16T07:55:07.887Z,58.10
2022-08-16T07:57:44.276Z,58.39
2022-08-16T08:00:26.508Z,58.05
2022-08-16T08:02:55.543Z,57.57
2022-08-16T08:05:35.804Z,57.88
2022-08-16T08:08:11.996Z,56.17
2022-08-16T08:10:52.352Z,55.79
2022-08-16T08:13:19.865Z,55.47
2022-08-16T08:16:07.419Z,54.90
2022-08-16T08:18:50.214Z,54.81
2022-08-16T08:21:27.194Z,54.67
2022-08-16T08:23:57.631Z,54.16
2022-08-16T08:26:25.222Z,53.74
2022-08-16T08:28:52.401Z,53.51
2022-08-16T08:31:20.137Z,52.87
2022-08-16T08:33:51.634Z,53.20
2022-08-16T08:36:33.097Z,53.15
2022-08-16T08:39:13.165Z,53.03
2022-08-16T08:41:43.385Z,52.32
2022-08-16T08:44:28.631Z,51.86
2022-08-16T08:47:01.575Z,52.80
2022-08-16T08:49:50.303Z,52.89
2022-08-16T08:52:47.878Z,52.15
2022-08-16T08:55:11.423Z,51.61
2022-08-16T08:57:45.097Z,51.53
2022-08-16T09:00:21.447Z,51.89
2022-08-16T09:02:55.160Z,52.35
2022-08-16T09:05:26.169Z,52.27
2022-08-16T09:08:06.021Z,52.13
2022-08-16T09:11:07.465Z,51.33
2022-08-16T09:13:36.194Z,51.19
2022-08-16T09:16:03.485Z,51.25
2022-08-16T09:18:35.337Z,50.29
2022-08-16T09:21:04.387Z,49.80
2022-08-16T09:23:36.689Z,50.16
2022-08-16T09:26:46.358Z,49.81
2022-08-16T09:29:14.836Z,49.74
2022-08-16T09:31:42.817Z,49.30
2022-08-16T09:34:10.533Z,49.38
2022-08-16T09:36:46.184Z,48.86
2022-08-16T09:39:16.258Z,48.62
2022-08-16T09:41:53.164Z,47.52
2022-08-16T09:45:09.568Z,48.48
2022-08-16T09:47:12.197Z,49.75
2022-08-16T09:49:41.078Z,48.87
2022-08-16T09:52:09.998Z,49.31
2022-08-16T09:54:37.252Z,47.76
2022-08-16T09:57:04.897Z,48.75
2022-08-16T09:59:38.361Z,49.74
2022-08-16T10:02:27.435Z,48.78
2022-08-16T10:04:55.296Z,50.21
2022-08-16T10:07:23.638Z,49.47
2022-08-16T10:09:54.650Z,49.50
2022-08-16T10:12:46.861Z,48.86
2022-08-16T10:15:22.659Z,49.80
2022-08-16T10:18:00.311Z,49.80
2022-08-16T10:20:32.401Z,49.96
2022-08-16T10:23:06.846Z,49.00
2022-08-16T10:27:19.841Z,49.24
2022-08-16T10:28:32.031Z,50.12
2022-08-16T10:31:07.355Z,50.42
2022-08-16T10:33:40.240Z,50.29
2022-08-16T10:36:08.941Z,49.88
2022-08-16T10:38:38.171Z,49.48
2022-08-16T10:41:10.346Z,49.65
2022-08-16T10:43:38.452Z,48.04
2022-08-16T10:46:39.303Z,48.45
2022-08-16T10:48:57.216Z,46.21
2022-08-16T10:51:33.345Z,46.71
2022-08-16T10:54:00.575Z,47.72
2022-08-16T10:56:52.627Z,46.69
2022-08-16T10:59:39.166Z,47.37
2022-08-16T11:07:55.003Z,46.07
2022-08-16T11:13:57.382Z,46.59
2022-08-16T11:19:04.145Z,45.42
2022-08-16T11:21:36.967Z,46.65
2022-08-16T11:24:05.401Z,46.28
2022-08-16T11:27:23.175Z,45.03
2022-08-16T11:29:39.356Z,45.42
2022-08-16T11:32:07.623Z,44.57
2022-08-16T11:35:05.910Z,44.34
2022-08-16T11:37:27.651Z,44.46
2022-08-16T11:40:11.246Z,44.50
2022-08-16T11:42:38.410Z,44.27
2022-08-16T11:45:07.655Z,43.32
2022-08-16T11:47:34.437Z,42.41
2022-08-16T11:50:01.084Z,43.86
2022-08-16T11:52:29.341Z,44.27
2022-08-16T11:55:00.145Z,45.12
2022-08-16T11:57:27.157Z,44.05
2022-08-16T11:59:54.612Z,43.97
2022-08-16T12:02:31.153Z,42.91
2022-08-16T12:04:59.839Z,42.20
2022-08-16T12:07:29.616Z,42.46
2022-08-16T12:10:01.268Z,42.12
2022-08-16T12:12:29.864Z,42.36
2022-08-16T12:15:00.711Z,42.22
2022-08-16T12:17:32.375Z,42.23
2022-08-16T12:20:07.604Z,43.05
2022-08-16T12:22:36.980Z,42.87
2022-08-16T12:25:15.354Z,42.83
2022-08-16T12:27:44.353Z,42.58
2022-08-16T12:30:21.283Z,42.49
2022-08-16T12:32:56.491Z,41.94
2022-08-16T12:35:27.203Z,42.25
2022-08-16T12:37:57.830Z,42.06
2022-08-16T12:40:31.667Z,43.32
2022-08-16T12:43:01.396Z,43.36
2022-08-16T12:45:31.474Z,42.55
2022-08-16T12:48:33.917Z,42.08
2022-08-16T12:51:19.988Z,42.24
2022-08-16T12:53:53.154Z,41.31
2022-08-16T12:56:25.104Z,41.53
2022-08-16T12:58:55.935Z,41.39
2022-08-16T13:01:27.394Z,40.90
2022-08-16T13:04:12.441Z,40.21
2022-08-16T13:06:43.397Z,40.93
2022-08-16T13:09:26.477Z,40.93
2022-08-16T13:12:18.968Z,40.96
2022-08-16T13:14:47.635Z,40.41
2022-08-16T13:17:23.923Z,39.62
2022-08-16T13:20:09.974Z,39.68
2022-08-16T13:22:54.747Z,40.12
2022-08-16T13:25:23.916Z,39.86
2022-08-16T13:28:02.575Z,38.65
2022-08-16T13:30:42.393Z,38.59
2022-08-16T13:33:19.003Z,38.36
2022-08-16T13:36:00.832Z,37.25
2022-08-16T13:38:37.183Z,38.22
2022-08-16T13:41:08.422Z,36.08
2022-08-16T13:43:35.853Z,36.55
2022-08-16T13:46:04.615Z,37.33
2022-08-16T13:48:42.610Z,37.40
2022-08-16T13:51:18.732Z,38.17
2022-08-16T13:53:54.395Z,38.04
2022-08-16T13:56:25.928Z,38.30
2022-08-16T13:59:04.779Z,38.11
2022-08-16T14:01:33.059Z,38.47
2022-08-16T14:04:03.751Z,38.23
2022-08-16T14:06:31.169Z,37.62
2022-08-16T14:09:06.067Z,37.31
2022-08-16T14:11:34.449Z,36.89
2022-08-16T14:14:01.716Z,36.50
2022-08-16T14:19:18.347Z,35.56
2022-08-16T14:21:56.724Z,36.14
2022-08-16T14:24:36.909Z,36.00
2022-08-16T14:27:04.716Z,34.78
2022-08-16T14:29:35.009Z,34.22
2022-08-16T14:32:06.484Z,34.25
2022-08-16T14:34:33.414Z,34.83
2022-08-16T14:37:00.751Z,33.81
2022-08-16T14:39:27.416Z,33.06
2022-08-16T14:41:55.752Z,32.13
2022-08-16T14:44:23.900Z,32.06
2022-08-16T14:46:53.042Z,31.21
2022-08-16T14:49:20.090Z,31.01
2022-08-16T14:51:48.673Z,30.10
2022-08-16T14:54:15.642Z,27.44
2022-08-16T14:56:46.844Z,25.96
2022-08-16T14:59:22.461Z,24.90
2022-08-16T15:01:59.790Z,24.42
2022-08-16T15:04:39.367Z,24.18
2022-08-16T15:07:12.635Z,25.69
2022-08-16T15:10:01.026Z,25.52
2022-08-16T15:12:33.983Z,26.43
2022-08-16T15:15:16.481Z,24.67
2022-08-16T15:17:56.253Z,24.20
2022-08-16T15:20:26.963Z,26.96
2022-08-16T15:22:57.017Z,26.75
2022-08-16T15:25:29.564Z,28.46
2022-08-16T15:27:58.551Z,28.22
2022-08-16T15:30:58.347Z,27.73
2022-08-16T15:33:19.487Z,30.50
2022-08-16T15:35:49.961Z,32.00
2022-08-16T15:38:31.628Z,31.12
2022-08-16T15:41:05.079Z,31.48
2022-08-16T15:43:39.413Z,32.89
2022-08-16T15:46:35.820Z,33.19
2022-08-16T15:49:12.397Z,34.02
2022-08-16T15:51:39.907Z,34.27
2022-08-16T15:54:29.179Z,33.45
2022-08-16T15:56:55.172Z,32.56
2022-08-16T15:59:24.741Z,33.44
2022-08-16T16:01:56.597Z,33.69
2022-08-16T16:04:28.364Z,34.11
2022-08-16T16:06:59.345Z,34.17
2022-08-16T16:09:36.615Z,33.53
2022-08-16T16:12:16.321Z,34.83
2022-08-16T16:14:52.013Z,34.93
2022-08-16T16:17:18.675Z,35.00
2022-08-16T16:19:45.639Z,34.74
2022-08-16T16:22:17.468Z,34.76
2022-08-16T16:24:47.022Z,34.80
2022-08-16T16:27:14.089Z,35.49
2022-08-16T16:29:42.875Z,34.47
2022-08-16T16:32:13.655Z,33.31
2022-08-16T16:34:43.187Z,34.55
2022-08-16T16:37:10.259Z,34.48
2022-08-16T16:39:37.349Z,35.00
2022-08-16T16:42:05.205Z,34.28
2022-08-16T16:44:36.342Z,34.31
2022-08-16T16:47:04.337Z,35.00
2022-08-16T16:49:32.869Z,34.69
2022-08-16T16:52:07.189Z,35.12
2022-08-16T16:54:35.471Z,35.53
2022-08-16T16:57:02.890Z,35.68
2022-08-16T16:59:30.489Z,35.19
2022-08-16T17:02:39.344Z,34.72
2022-08-16T17:04:47.277Z,34.64
2022-08-16T17:07:14.612Z,35.50
2022-08-16T17:09:41.569Z,35.52
2022-08-16T17:12:23.598Z,35.04
2022-08-16T17:14:55.842Z,34.59
2022-08-16T17:17:25.082Z,34.77
2022-08-16T17:19:52.319Z,35.43
2022-08-16T17:22:22.127Z,34.13
2022-08-16T17:24:52.430Z,35.24
2022-08-16T17:27:33.247Z,35.03
2022-08-16T17:30:44.715Z,34.72
2022-08-16T17:33:13.217Z,34.70
2022-08-16T17:35:45.655Z,35.29
2022-08-16T17:38:38.936Z,34.58
2022-08-16T17:41:11.757Z,34.67
2022-08-16T17:43:44.253Z,34.82
2022-08-16T17:46:50.516Z,35.37
2022-08-16T17:48:59.444Z,35.06
2022-08-16T17:51:27.526Z,35.15
2022-08-16T17:53:54.659Z,35.29
2022-08-16T17:56:21.479Z,34.65
2022-08-16T17:58:48.170Z,35.29
2022-08-16T18:01:15.050Z,34.88
2022-08-16T18:04:09.213Z,35.37
2022-08-16T18:06:29.303Z,35.82
2022-08-16T18:09:02.501Z,35.46
2022-08-16T18:11:33.736Z,35.17
2022-08-16T18:14:00.469Z,34.60
2022-08-16T18:16:27.099Z,34.89
2022-08-16T18:18:53.873Z,35.38
2022-08-16T18:21:39.767Z,35.33
2022-08-16T18:24:06.793Z,35.74
2022-08-16T18:26:34.077Z,35.35
2022-08-16T18:29:00.827Z,35.97
2022-08-16T18:31:27.572Z,36.41
2022-08-16T18:33:55.566Z,36.76
2022-08-16T18:36:23.934Z,36.15
2022-08-16T18:38:51.821Z,35.98
2022-08-16T18:41:20.337Z,36.00
2022-08-16T18:44:14.196Z,36.25
2022-08-16T18:46:34.098Z,36.27
2022-08-16T18:49:00.917Z,37.09
2022-08-16T18:51:27.610Z,37.51
2022-08-16T18:53:54.421Z,37.64
2022-08-16T18:56:21.177Z,37.82
2022-08-16T18:58:48.755Z,36.58
2022-08-16T19:01:15.487Z,36.82
2022-08-16T19:03:42.258Z,37.15
2022-08-16T19:06:13.909Z,37.94
2022-08-16T19:08:46.102Z,38.17
2022-08-16T19:11:20.005Z,38.53
2022-08-16T19:13:47.201Z,38.56
2022-08-16T19:16:14.682Z,38.66
2022-08-16T19:18:41.727Z,38.55
2022-08-16T19:21:11.305Z,38.54
2022-08-16T19:23:43.521Z,38.33
2022-08-16T19:26:24.519Z,38.49
2022-08-16T19:28:59.078Z,38.63
2022-08-16T19:31:30.945Z,38.35
2022-08-16T19:33:58.045Z,38.60
2022-08-16T19:36:35.485Z,38.65
2022-08-16T19:39:08.856Z,38.40
2022-08-16T19:41:38.420Z,38.83
2022-08-16T19:44:06.578Z,38.88
2022-08-16T19:46:33.465Z,38.94
2022-08-16T19:49:00.517Z,38.99
2022-08-16T19:51:27.604Z,38.88
2022-08-16T19:53:54.301Z,39.04
2022-08-16T19:56:23.066Z,39.22
2022-08-16T19:59:16.370Z,39.34
2022-08-16T20:01:41.952Z,39.31
2022-08-16T20:04:12.309Z,38.79
2022-08-16T20:06:40.068Z,38.68
2022-08-16T20:09:07.077Z,38.59
2022-08-16T20:11:35.134Z,38.08
2022-08-16T20:14:02.694Z,38.17
2022-08-16T20:16:29.888Z,38.51
2022-08-16T20:18:56.550Z,39.04
2022-08-16T20:21:23.275Z,39.71
2022-08-16T20:23:50.012Z,39.91
2022-08-16T20:26:18.674Z,39.49
2022-08-16T20:28:54.095Z,39.61
2022-08-16T20:31:23.577Z,39.61
2022-08-16T20:33:51.605Z,39.84
2022-08-16T20:36:18.333Z,39.26
2022-08-16T20:38:47.360Z,39.70
2022-08-16T20:41:15.970Z,40.11
2022-08-16T20:43:43.474Z,40.13
2022-08-16T20:46:10.249Z,40.15
2022-08-16T20:48:36.950Z,40.19
2022-08-16T20:51:04.098Z,40.28
2022-08-16T20:53:30.892Z,40.01
2022-08-16T20:55:57.644Z,39.89
2022-08-16T20:58:24.546Z,40.41
2022-08-16T21:00:51.278Z,40.50
2022-08-16T21:03:18.007Z,40.29
2022-08-16T21:05:46.517Z,40.21
2022-08-16T21:08:52.545Z,40.33
2022-08-16T21:11:03.938Z,40.25
2022-08-16T21:13:32.552Z,39.60
2022-08-16T21:16:01.213Z,39.92
2022-08-16T21:18:28.043Z,39.70
2022-08-16T21:20:55.096Z,39.26
2022-08-16T21:23:22.177Z,39.87
2022-08-16T21:25:58.016Z,39.87
2022-08-16T21:28:42.743Z,39.79
2022-08-16T21:31:11.864Z,40.13
2022-08-16T21:33:38.801Z,40.17
2022-08-16T21:36:05.929Z,40.07
2022-08-16T21:38:32.695Z,40.43
2022-08-16T21:41:00.311Z,40.63
2022-08-16T21:43:31.659Z,40.66
2022-08-16T21:45:59.919Z,40.81
2022-08-16T21:48:34.724Z,39.88
2022-08-16T21:51:08.979Z,40.00
2022-08-16T21:53:36.166Z,40.76
2022-08-16T21:56:05.230Z,40.92
2022-08-16T21:58:32.387Z,40.85
2022-08-16T22:00:59.848Z,41.03
2022-08-16T22:03:26.531Z,41.10
2022-08-16T22:06:12.408Z,41.54
2022-08-16T22:08:48.087Z,41.68
2022-08-16T22:11:23.739Z,41.89
2022-08-16T22:13:58.707Z,41.67
2022-08-16T22:17:05.691Z,41.70
2022-08-16T22:19:43.723Z,41.36
2022-08-16T22:22:11.552Z,41.57
2022-08-16T22:24:38.529Z,41.59
2022-08-16T22:27:06.114Z,41.80
2022-08-16T22:29:32.808Z,41.66
2022-08-16T22:32:02.026Z,41.97
2022-08-16T22:34:28.788Z,41.99
2022-08-16T22:36:55.558Z,42.11
2022-08-16T22:39:22.272Z,42.57
2022-08-16T22:41:49.919Z,42.75
2022-08-16T22:44:17.784Z,42.63
2022-08-16T22:46:45.241Z,42.55
2022-08-16T22:49:12.807Z,42.70
2022-08-16T22:51:40.348Z,42.39
2022-08-16T22:54:47.414Z,42.71
2022-08-16T22:56:54.850Z,42.54
2022-08-16T22:59:21.513Z,42.51
2022-08-16T23:01:48.298Z,42.36
2022-08-16T23:04:15.084Z,42.30
2022-08-16T23:06:41.808Z,42.20
2022-08-16T23:09:08.576Z,42.28
2022-08-16T23:11:35.572Z,42.81
2022-08-16T23:14:02.516Z,42.78
2022-08-16T23:16:33.343Z,42.96
2022-08-16T23:19:09.321Z,43.41
2022-08-16T23:21:38.179Z,43.48
2022-08-16T23:24:06.425Z,43.72
2022-08-16T23:26:44.025Z,43.05
2022-08-16T23:29:23.475Z,43.50
2022-08-16T23:31:58.353Z,43.12
2022-08-16T23:34:27.834Z,43.32
2022-08-16T23:36:55.192Z,43.36
2022-08-16T23:39:22.531Z,43.83
2022-08-16T23:41:49.227Z,43.99
2022-08-16T23:44:56.779Z,43.91
2022-08-16T23:47:02.841Z,43.93
2022-08-16T23:49:57.666Z,43.89
2022-08-16T23:52:17.994Z,43.60
2022-08-16T23:54:44.691Z,43.54
2022-08-16T23:57:11.429Z,43.59
2022-08-16T23:59:53.475Z,43.47
